Time;durP1;ratioP1;P1;durP2;ratioP2;P2;SDS_P1;SDS_P2;PMS_P1;PMS_P2;Temp;Humidity;BMP_temperature;BMP_pressure;BME280_temperature;BME280_humidity;BME280_pressure;Samples;Min_cycle;Max_cycle;Signal;HPM_P1;HPM_P2
2023/06/25 00:02:09;;;;;;;9.15;4.53;;;;;;;;;;5117706;28;20206;-39
2023/06/25 00:04:36;;;;;;;9.90;4.47;;;;;;;;;;5117367;28;20205;-39
2023/06/25 00:07:03;;;;;;;7.03;4.47;;;;;;;;;;5117936;28;20224;-39
2023/06/25 00:09:30;;;;;;;8.05;4.85;;;;;;;;;;5117904;28;20190;-39
2023/06/25 00:11:57;;;;;;;7.80;4.28;;;;;;;;;;5117290;28;20661;-39
2023/06/25 00:14:25;;;;;;;7.65;4.28;;;;;;;;;;5117671;28;20213;-39
2023/06/25 00:16:57;;;;;;;7.80;4.63;;;;;;;;;;5117463;28;20202;-39
2023/06/25 00:19:26;;;;;;;8.95;4.05;;;;;;;;;;5117623;28;20244;-39
2023/06/25 00:21:54;;;;;;;11.60;4.93;;;;;;;;;;5117496;28;20232;-39
2023/06/25 00:24:21;;;;;;;7.65;4.93;;;;;;;;;;5117517;28;20202;-40
2023/06/25 00:26:48;;;;;;;6.22;4.32;;;;;;;;;;5117157;28;20202;-39
2023/06/25 00:29:16;;;;;;;8.60;4.43;;;;;;;;;;5117608;28;20245;-39
2023/06/25 00:31:43;;;;;;;8.25;4.53;;;;;;;;;;5116974;28;20198;-39
2023/06/25 00:34:11;;;;;;;6.90;4.03;;;;;;;;;;5133296;27;20238;-38
2023/06/25 00:36:40;;;;;;;10.35;4.47;;;;;;;;;;5117100;28;20208;-39
2023/06/25 00:39:07;;;;;;;8.20;3.95;;;;;;;;;;5099145;28;20202;-39
2023/06/25 00:41:35;;;;;;;6.63;4.60;;;;;;;;;;5098873;28;20205;-39
2023/06/25 00:44:05;;;;;;;10.25;4.55;;;;;;;;;;5098705;28;20734;-39
2023/06/25 00:46:33;;;;;;;10.88;4.88;;;;;;;;;;5117078;28;20972;-39
2023/06/25 00:49:05;;;;;;;9.43;4.90;;;;;;;;;;5098641;28;20198;-39
2023/06/25 00:51:35;;;;;;;7.25;4.53;;;;;;;;;;5117264;28;20231;-39
2023/06/25 00:54:06;;;;;;;6.78;4.28;;;;;;;;;;5116907;28;20283;-39
2023/06/25 00:56:34;;;;;;;9.00;4.60;;;;;;;;;;5116790;28;20202;-39
2023/06/25 00:59:02;;;;;;;7.50;4.47;;;;;;;;;;5098646;28;20197;-39
2023/06/25 01:01:47;;;;;;;8.27;4.35;;;;;;;;;;5098890;28;20190;-39
2023/06/25 01:04:19;;;;;;;9.07;4.10;;;;;;;;;;5116755;28;20770;-39
2023/06/25 01:06:48;;;;;;;8.38;4.35;;;;;;;;;;5098393;28;20201;-39
2023/06/25 01:09:17;;;;;;;7.82;4.13;;;;;;;;;;5097729;28;20194;-40
2023/06/25 01:12:02;;;;;;;9.30;4.63;;;;;;;;;;5098587;28;20202;-40
2023/06/25 01:14:32;;;;;;;9.77;4.13;;;;;;;;;;5098591;28;20217;-39
2023/06/25 01:17:00;;;;;;;6.30;3.92;;;;;;;;;;5098762;28;20297;-39
2023/06/25 01:19:30;;;;;;;6.97;4.65;;;;;;;;;;5098485;28;20202;-39
2023/06/25 01:22:04;;;;;;;15.27;4.85;;;;;;;;;;5116324;28;20202;-39
2023/06/25 01:24:35;;;;;;;9.43;4.10;;;;;;;;;;5116468;28;20196;-39
2023/06/25 01:27:04;;;;;;;8.05;4.63;;;;;;;;;;5116743;28;20549;-39
2023/06/25 01:29:34;;;;;;;15.10;5.07;;;;;;;;;;5097856;28;20553;-39
2023/06/25 01:32:01;;;;;;;15.23;4.43;;;;;;;;;;5115811;28;20206;-41
2023/06/25 01:34:29;;;;;;;8.07;4.68;;;;;;;;;;5115537;28;20222;-39
2023/06/25 01:36:56;;;;;;;8.57;5.03;;;;;;;;;;5116213;28;20202;-39
2023/06/25 01:39:24;;;;;;;7.55;4.70;;;;;;;;;;5115887;28;20202;-39
2023/06/25 01:41:51;;;;;;;8.88;3.80;;;;;;;;;;5115443;28;20548;-39
2023/06/25 01:44:26;;;;;;;7.30;4.57;;;;;;;;;;5115492;28;20193;-39
2023/06/25 01:46:54;;;;;;;6.90;4.43;;;;;;;;;;5097184;28;20246;-39
2023/06/25 01:49:22;;;;;;;7.80;4.28;;;;;;;;;;5115948;28;20198;-42
2023/06/25 01:52:00;;;;;;;8.02;5.00;;;;;;;;;;5115453;28;20202;-41
2023/06/25 01:54:27;;;;;;;8.13;4.40;;;;;;;;;;5115505;28;20237;-39
2023/06/25 01:56:55;;;;;;;6.80;4.05;;;;;;;;;;5115238;28;20198;-39
2023/06/25 01:59:22;;;;;;;7.70;4.68;;;;;;;;;;5130968;27;20210;-40
2023/06/25 02:01:49;;;;;;;15.10;4.63;;;;;;;;;;5130920;27;20247;-39
2023/06/25 02:04:17;;;;;;;10.98;4.35;;;;;;;;;;5115380;28;20213;-39
2023/06/25 02:06:44;;;;;;;6.63;4.30;;;;;;;;;;5115002;28;20233;-39
2023/06/25 02:09:11;;;;;;;6.38;4.07;;;;;;;;;;5115152;28;20645;-39
2023/06/25 02:11:38;;;;;;;9.82;4.63;;;;;;;;;;5097029;28;20213;-39
2023/06/25 02:14:05;;;;;;;8.63;3.97;;;;;;;;;;5114774;28;20275;-39
2023/06/25 02:16:33;;;;;;;8.82;4.72;;;;;;;;;;5096738;28;20194;-39
2023/06/25 02:19:00;;;;;;;9.65;4.47;;;;;;;;;;5114861;28;20224;-39
2023/06/25 02:21:27;;;;;;;8.07;4.55;;;;;;;;;;5130725;27;20198;-39
2023/06/25 02:23:54;;;;;;;11.65;5.00;;;;;;;;;;5114952;28;20208;-39
2023/06/25 02:26:21;;;;;;;7.63;4.82;;;;;;;;;;5114815;28;20209;-38
2023/06/25 02:28:48;;;;;;;8.48;4.88;;;;;;;;;;5114752;27;20206;-39
2023/06/25 02:31:18;;;;;;;13.70;4.90;;;;;;;;;;5117131;27;20278;-38
2023/06/25 02:33:45;;;;;;;7.57;4.57;;;;;;;;;;5135048;27;20240;-39
2023/06/25 02:36:12;;;;;;;8.15;5.03;;;;;;;;;;5135287;27;20603;-39
2023/06/25 02:38:39;;;;;;;11.60;4.78;;;;;;;;;;5135255;27;20220;-39
2023/06/25 02:41:06;;;;;;;8.35;5.10;;;;;;;;;;5135348;27;20202;-39
2023/06/25 02:43:34;;;;;;;7.82;4.55;;;;;;;;;;5116757;27;20228;-39
2023/06/25 02:46:01;;;;;;;7.55;4.75;;;;;;;;;;5135256;27;20193;-39
2023/06/25 02:48:28;;;;;;;7.93;5.13;;;;;;;;;;5117279;27;20189;-39
2023/06/25 02:50:56;;;;;;;13.15;5.00;;;;;;;;;;5117158;27;20254;-39
2023/06/25 02:53:23;;;;;;;11.88;5.32;;;;;;;;;;5134691;27;20699;-39
2023/06/25 02:55:50;;;;;;;9.00;5.15;;;;;;;;;;5096826;28;20202;-40
2023/06/25 02:58:17;;;;;;;10.95;5.15;;;;;;;;;;5094605;28;20217;-39
2023/06/25 03:00:45;;;;;;;8.93;5.53;;;;;;;;;;5094492;28;20194;-39
2023/06/25 03:03:12;;;;;;;10.00;5.55;;;;;;;;;;5094394;28;20267;-39
2023/06/25 03:05:39;;;;;;;7.55;4.90;;;;;;;;;;5112458;28;20237;-40
2023/06/25 03:08:07;;;;;;;9.23;4.85;;;;;;;;;;5112322;28;20198;-40
2023/06/25 03:10:37;;;;;;;10.57;5.32;;;;;;;;;;5094493;28;20198;-40
2023/06/25 03:13:05;;;;;;;11.13;5.65;;;;;;;;;;5112113;28;20715;-41
2023/06/25 03:15:33;;;;;;;11.63;4.90;;;;;;;;;;5094216;28;20694;-40
2023/06/25 03:18:00;;;;;;;8.38;5.03;;;;;;;;;;5094385;28;20200;-40
2023/06/25 03:20:28;;;;;;;14.93;5.28;;;;;;;;;;5095917;28;20194;-40
2023/06/25 03:22:55;;;;;;;14.57;5.05;;;;;;;;;;5114102;28;20208;-39
2023/06/25 03:25:22;;;;;;;10.73;5.70;;;;;;;;;;5096182;28;20209;-39
2023/06/25 03:28:00;;;;;;;9.32;4.88;;;;;;;;;;5095971;28;20296;-39
2023/06/25 03:30:27;;;;;;;10.27;6.40;;;;;;;;;;5095102;28;20202;-39
2023/06/25 03:32:55;;;;;;;12.10;5.82;;;;;;;;;;5109784;27;20551;-39
2023/06/25 03:35:22;;;;;;;12.10;5.57;;;;;;;;;;5117374;27;20202;-39
2023/06/25 03:37:50;;;;;;;10.20;5.45;;;;;;;;;;5124939;27;20556;-39
2023/06/25 03:40:18;;;;;;;8.48;5.57;;;;;;;;;;5124583;27;20203;-39
2023/06/25 03:42:45;;;;;;;9.32;5.28;;;;;;;;;;5127900;27;20267;-41
2023/06/25 03:45:15;;;;;;;10.55;5.45;;;;;;;;;;5120280;27;20197;-40
2023/06/25 03:47:44;;;;;;;11.45;6.45;;;;;;;;;;5141194;27;20190;-39
2023/06/25 03:50:11;;;;;;;10.80;5.68;;;;;;;;;;5123603;27;20237;-39
2023/06/25 03:52:38;;;;;;;10.63;5.90;;;;;;;;;;5124797;27;20234;-39
2023/06/25 03:55:06;;;;;;;9.00;5.90;;;;;;;;;;5124178;27;20216;-39
2023/06/25 03:57:35;;;;;;;10.50;6.10;;;;;;;;;;5121545;27;20930;-40
2023/06/25 04:00:02;;;;;;;8.52;5.53;;;;;;;;;;5124864;27;20200;-40
2023/06/25 04:02:39;;;;;;;9.20;5.68;;;;;;;;;;5139746;27;20698;-44
2023/06/25 04:05:07;;;;;;;10.40;6.22;;;;;;;;;;5123451;27;20229;-39
2023/06/25 04:07:34;;;;;;;8.43;5.63;;;;;;;;;;5139563;27;20636;-42
2023/06/25 04:10:02;;;;;;;11.27;6.60;;;;;;;;;;5125184;27;20532;-41
2023/06/25 04:12:29;;;;;;;14.48;6.43;;;;;;;;;;5123465;27;20201;-41
2023/06/25 04:14:57;;;;;;;14.32;6.60;;;;;;;;;;5125256;27;20216;-40
2023/06/25 04:17:24;;;;;;;12.70;5.68;;;;;;;;;;5143759;27;20225;-39
2023/06/25 04:19:53;;;;;;;11.40;5.88;;;;;;;;;;5132190;28;20251;-41
2023/06/25 04:22:20;;;;;;;13.32;6.90;;;;;;;;;;5118169;27;20609;-41
2023/06/25 04:24:48;;;;;;;14.10;6.85;;;;;;;;;;5124976;27;20193;-40
2023/06/25 04:27:15;;;;;;;9.80;5.97;;;;;;;;;;5114143;28;20281;-39
2023/06/25 04:29:42;;;;;;;14.15;6.63;;;;;;;;;;5110860;28;20206;-40
2023/06/25 04:32:11;;;;;;;15.45;6.53;;;;;;;;;;5113405;28;20201;-39
2023/06/25 04:34:39;;;;;;;10.85;6.43;;;;;;;;;;5114300;28;20228;-39
2023/06/25 04:37:07;;;;;;;9.32;5.93;;;;;;;;;;5114236;28;20656;-39
2023/06/25 04:39:35;;;;;;;11.07;6.38;;;;;;;;;;5132443;28;20190;-38
2023/06/25 04:42:02;;;;;;;9.35;6.05;;;;;;;;;;5110678;28;20602;-40
2023/06/25 04:44:30;;;;;;;13.05;6.18;;;;;;;;;;5117256;27;20729;-38
2023/06/25 04:46:58;;;;;;;9.27;5.90;;;;;;;;;;5123173;27;20517;-38
2023/06/25 04:49:26;;;;;;;13.07;5.90;;;;;;;;;;5120986;27;20206;-39
2023/06/25 04:51:53;;;;;;;12.43;6.05;;;;;;;;;;5114722;27;20287;-38
2023/06/25 04:54:20;;;;;;;6.90;4.60;;;;;;;;;;5135054;27;20240;-38
2023/06/25 04:56:47;;;;;;;8.50;5.25;;;;;;;;;;5135804;27;20672;-38
2023/06/25 04:59:14;;;;;;;7.90;4.82;;;;;;;;;;5135909;27;20197;-38
2023/06/25 05:01:41;;;;;;;8.23;5.53;;;;;;;;;;5135633;27;20204;-38
2023/06/25 05:04:09;;;;;;;9.65;5.45;;;;;;;;;;5132875;27;20205;-38
2023/06/25 05:06:36;;;;;;;10.57;4.85;;;;;;;;;;5135885;27;20235;-39
2023/06/25 05:09:03;;;;;;;7.68;4.70;;;;;;;;;;5134193;27;20213;-38
2023/06/25 05:11:30;;;;;;;10.07;4.63;;;;;;;;;;5133234;27;20201;-38
2023/06/25 05:13:58;;;;;;;8.02;4.00;;;;;;;;;;5129831;27;20256;-38
2023/06/25 05:16:25;;;;;;;7.30;4.68;;;;;;;;;;5134397;27;20221;-38
2023/06/25 05:18:52;;;;;;;10.77;4.35;;;;;;;;;;5134376;27;20225;-37
2023/06/25 05:21:19;;;;;;;6.75;4.18;;;;;;;;;;5134921;27;20217;-38
2023/06/25 05:23:57;;;;;;;5.75;3.88;;;;;;;;;;5135270;27;20228;-40
2023/06/25 05:26:24;;;;;;;7.20;4.15;;;;;;;;;;5128752;27;20217;-38
2023/06/25 05:28:52;;;;;;;9.52;4.28;;;;;;;;;;5114612;28;20275;-38
2023/06/25 05:31:19;;;;;;;7.03;4.00;;;;;;;;;;5132227;27;20225;-38
2023/06/25 05:33:46;;;;;;;6.25;4.32;;;;;;;;;;5135644;27;20236;-38
2023/06/25 05:36:14;;;;;;;9.73;3.85;;;;;;;;;;5135623;27;20243;-38
2023/06/25 05:38:41;;;;;;;6.68;4.10;;;;;;;;;;5126623;27;20273;-38
2023/06/25 05:41:08;;;;;;;9.02;4.15;;;;;;;;;;5135066;27;20247;-40
2023/06/25 05:43:36;;;;;;;6.25;3.78;;;;;;;;;;5134642;27;20668;-40
2023/06/25 05:46:03;;;;;;;6.80;3.97;;;;;;;;;;5133078;27;20598;-39
2023/06/25 05:48:30;;;;;;;8.63;3.50;;;;;;;;;;5135288;27;20222;-38
2023/06/25 05:50:57;;;;;;;7.72;4.65;;;;;;;;;;5135711;27;20232;-38
2023/06/25 05:53:25;;;;;;;8.38;3.85;;;;;;;;;;5134935;27;20217;-37
2023/06/25 05:55:52;;;;;;;7.43;4.05;;;;;;;;;;5135194;27;20282;-38
2023/06/25 05:58:19;;;;;;;4.80;3.47;;;;;;;;;;5134546;27;20579;-37
2023/06/25 06:00:46;;;;;;;5.45;4.18;;;;;;;;;;5135245;27;20700;-39
2023/06/25 06:03:13;;;;;;;5.63;4.15;;;;;;;;;;5133928;27;20225;-38
2023/06/25 06:05:41;;;;;;;7.00;4.13;;;;;;;;;;5125297;27;20240;-38
2023/06/25 06:08:08;;;;;;;7.03;4.22;;;;;;;;;;5134851;27;20266;-39
2023/06/25 06:10:35;;;;;;;4.95;3.20;;;;;;;;;;5134735;27;20213;-38
2023/06/25 06:13:02;;;;;;;7.95;4.07;;;;;;;;;;5134747;27;20213;-37
2023/06/25 06:15:29;;;;;;;8.77;3.85;;;;;;;;;;5134727;27;20225;-38
2023/06/25 06:17:56;;;;;;;5.35;3.65;;;;;;;;;;5115787;27;20228;-37
2023/06/25 06:20:23;;;;;;;8.05;3.55;;;;;;;;;;5134396;27;20228;-38
2023/06/25 06:22:51;;;;;;;7.43;3.85;;;;;;;;;;5131584;27;20232;-37
2023/06/25 06:25:18;;;;;;;7.53;4.38;;;;;;;;;;5133898;27;20727;-38
2023/06/25 06:27:45;;;;;;;6.63;3.67;;;;;;;;;;5133998;27;20274;-38
2023/06/25 06:30:12;;;;;;;10.77;4.05;;;;;;;;;;5131520;27;20213;-38
2023/06/25 06:32:40;;;;;;;6.45;3.80;;;;;;;;;;5134641;27;20708;-37
2023/06/25 06:35:07;;;;;;;6.85;3.53;;;;;;;;;;5133535;27;20237;-38
2023/06/25 06:37:34;;;;;;;5.55;3.58;;;;;;;;;;5134428;27;20221;-37
2023/06/25 06:40:01;;;;;;;4.82;3.40;;;;;;;;;;5134561;27;20217;-39
2023/06/25 06:42:29;;;;;;;7.63;3.35;;;;;;;;;;5131100;27;20216;-40
2023/06/25 06:44:56;;;;;;;6.22;3.90;;;;;;;;;;5134107;27;20281;-39
2023/06/25 06:47:24;;;;;;;7.28;3.75;;;;;;;;;;5133405;27;20225;-38
2023/06/25 06:49:51;;;;;;;5.50;3.10;;;;;;;;;;5130883;27;20225;-38
2023/06/25 06:52:23;;;;;;;5.55;3.45;;;;;;;;;;5133661;27;20218;-38
2023/06/25 06:54:50;;;;;;;5.32;3.47;;;;;;;;;;5133867;27;20237;-38
2023/06/25 06:57:18;;;;;;;5.65;3.60;;;;;;;;;;5113134;27;20221;-38
2023/06/25 06:59:45;;;;;;;3.85;2.63;;;;;;;;;;5115751;27;20225;-38
2023/06/25 07:02:13;;;;;;;5.35;3.17;;;;;;;;;;5134179;27;20209;-38
2023/06/25 07:04:40;;;;;;;3.78;2.72;;;;;;;;;;5133668;27;20221;-37
2023/06/25 07:07:07;;;;;;;3.63;2.63;;;;;;;;;;5133088;27;20269;-39
2023/06/25 07:09:34;;;;;;;6.28;2.97;;;;;;;;;;5133657;27;20224;-38
2023/06/25 07:12:02;;;;;;;4.78;3.28;;;;;;;;;;5131042;27;20202;-40
2023/06/25 07:14:29;;;;;;;5.28;2.80;;;;;;;;;;5138838;27;20213;-37
2023/06/25 07:16:57;;;;;;;7.18;3.35;;;;;;;;;;5134494;27;20252;-37
2023/06/25 07:19:24;;;;;;;3.72;2.75;;;;;;;;;;5134760;27;20201;-38
2023/06/25 07:21:51;;;;;;;4.07;2.85;;;;;;;;;;5133898;27;20198;-39
2023/06/25 07:24:18;;;;;;;5.65;2.85;;;;;;;;;;5133863;27;20200;-38
2023/06/25 07:26:45;;;;;;;3.45;2.45;;;;;;;;;;5133937;27;20196;-39
2023/06/25 07:29:12;;;;;;;5.38;2.78;;;;;;;;;;5131808;28;20566;-39
2023/06/25 07:31:40;;;;;;;5.55;3.03;;;;;;;;;;5134504;28;20197;-38
2023/06/25 07:34:07;;;;;;;4.63;3.03;;;;;;;;;;5127750;28;20212;-38
2023/06/25 07:36:34;;;;;;;5.88;2.25;;;;;;;;;;5128564;28;20227;-39
2023/06/25 07:39:03;;;;;;;4.07;2.40;;;;;;;;;;5134294;28;20201;-38
2023/06/25 07:41:30;;;;;;;3.70;2.20;;;;;;;;;;5134465;28;20197;-39
2023/06/25 07:43:57;;;;;;;4.07;2.55;;;;;;;;;;5134850;28;20204;-38
2023/06/25 07:46:25;;;;;;;5.40;2.72;;;;;;;;;;5134550;28;20194;-38
2023/06/25 07:48:52;;;;;;;3.60;2.00;;;;;;;;;;5134204;28;20712;-38
2023/06/25 07:51:19;;;;;;;6.22;2.80;;;;;;;;;;5134367;28;20193;-38
2023/06/25 07:53:46;;;;;;;4.07;2.38;;;;;;;;;;5134063;28;20206;-39
2023/06/25 07:56:13;;;;;;;4.20;2.70;;;;;;;;;;5134010;28;20217;-38
2023/06/25 07:58:40;;;;;;;5.13;2.33;;;;;;;;;;5134690;28;20230;-38
2023/06/25 08:01:07;;;;;;;5.13;2.45;;;;;;;;;;5134322;28;20559;-38
2023/06/25 08:03:34;;;;;;;4.65;2.70;;;;;;;;;;5134040;28;20659;-39
2023/06/25 08:06:02;;;;;;;4.07;2.47;;;;;;;;;;5134068;28;20244;-38
2023/06/25 08:08:29;;;;;;;4.43;2.47;;;;;;;;;;5134641;28;20241;-39
2023/06/25 08:10:56;;;;;;;3.35;2.60;;;;;;;;;;5127856;27;20549;-38
2023/06/25 08:13:23;;;;;;;2.67;2.10;;;;;;;;;;5127805;28;20677;-37
2023/06/25 08:15:51;;;;;;;4.03;2.80;;;;;;;;;;5133915;28;20228;-38
2023/06/25 08:18:18;;;;;;;3.83;2.17;;;;;;;;;;5137456;27;20213;-38
2023/06/25 08:20:46;;;;;;;4.32;2.25;;;;;;;;;;5137811;27;20198;-38
2023/06/25 08:23:13;;;;;;;3.90;2.50;;;;;;;;;;5137881;27;20655;-38
2023/06/25 08:25:40;;;;;;;6.00;2.65;;;;;;;;;;5132620;27;20259;-38
2023/06/25 08:28:07;;;;;;;3.33;2.30;;;;;;;;;;5122024;27;20205;-38
2023/06/25 08:30:35;;;;;;;5.97;2.47;;;;;;;;;;5137882;27;20202;-38
2023/06/25 08:33:02;;;;;;;3.25;1.83;;;;;;;;;;5137774;27;20197;-38
2023/06/25 08:35:29;;;;;;;4.43;2.30;;;;;;;;;;5137651;27;20591;-38
2023/06/25 08:37:56;;;;;;;7.97;2.38;;;;;;;;;;5120134;27;20201;-37
2023/06/25 08:40:26;;;;;;;4.82;2.45;;;;;;;;;;5116951;28;20302;-38
2023/06/25 08:42:53;;;;;;;3.80;2.40;;;;;;;;;;5117121;28;20292;-38
2023/06/25 08:45:20;;;;;;;4.05;2.55;;;;;;;;;;5117027;28;20567;-37
2023/06/25 08:47:54;;;;;;;5.00;2.45;;;;;;;;;;5116726;28;20198;-38
2023/06/25 08:50:23;;;;;;;4.03;1.88;;;;;;;;;;5117225;28;20206;-38
2023/06/25 08:52:51;;;;;;;3.67;2.28;;;;;;;;;;5098720;28;20198;-38
2023/06/25 08:55:21;;;;;;;3.33;1.73;;;;;;;;;;5098648;28;20279;-38
2023/06/25 08:57:49;;;;;;;4.10;2.00;;;;;;;;;;5116376;28;20220;-40
2023/06/25 09:00:16;;;;;;;3.30;2.33;;;;;;;;;;5116925;28;20594;-37
2023/06/25 09:02:44;;;;;;;2.60;2.13;;;;;;;;;;5127059;27;20222;-37
2023/06/25 09:05:12;;;;;;;3.15;2.08;;;;;;;;;;5133602;27;20237;-38
2023/06/25 09:07:44;;;;;;;4.80;2.30;;;;;;;;;;5132944;27;20193;-51
2023/06/25 09:10:11;;;;;;;3.90;2.60;;;;;;;;;;5134757;27;20201;-56
2023/06/25 09:12:39;;;;;;;4.15;2.50;;;;;;;;;;5130324;27;20201;-54
2023/06/25 09:15:07;;;;;;;7.07;2.22;;;;;;;;;;5136094;27;20221;-48
2023/06/25 09:17:36;;;;;;;5.78;2.85;;;;;;;;;;5136915;27;20239;-46
2023/06/25 09:20:04;;;;;;;3.40;2.28;;;;;;;;;;5136416;27;20193;-46
2023/06/25 09:22:32;;;;;;;4.13;2.33;;;;;;;;;;5134668;27;20556;-48
2023/06/25 09:25:00;;;;;;;3.38;2.17;;;;;;;;;;5135149;27;20204;-47
2023/06/25 09:27:27;;;;;;;4.20;2.70;;;;;;;;;;5132779;27;20211;-48
2023/06/25 09:29:57;;;;;;;3.15;2.55;;;;;;;;;;5099280;27;20201;-47
2023/06/25 09:32:24;;;;;;;3.88;2.85;;;;;;;;;;5136599;27;20193;-46
2023/06/25 09:34:52;;;;;;;5.63;2.75;;;;;;;;;;5135707;27;20227;-46
2023/06/25 09:37:20;;;;;;;3.47;2.28;;;;;;;;;;5136116;27;20660;-47
2023/06/25 09:39:48;;;;;;;4.57;2.40;;;;;;;;;;5118348;27;20197;-47
2023/06/25 09:42:17;;;;;;;3.83;2.63;;;;;;;;;;5136616;27;20204;-47
2023/06/25 09:44:45;;;;;;;4.57;2.40;;;;;;;;;;5117873;27;20563;-47
2023/06/25 09:47:16;;;;;;;3.00;2.10;;;;;;;;;;5134692;27;20648;-46
2023/06/25 09:49:44;;;;;;;2.97;2.47;;;;;;;;;;5118094;27;20209;-46
2023/06/25 09:52:14;;;;;;;3.58;2.70;;;;;;;;;;5114602;27;20217;-44
2023/06/25 09:54:42;;;;;;;4.18;2.25;;;;;;;;;;5117798;27;20182;-46
2023/06/25 09:57:14;;;;;;;3.22;2.25;;;;;;;;;;5136026;27;20204;-47
2023/06/25 09:59:42;;;;;;;3.90;2.30;;;;;;;;;;5135391;27;20246;-45
2023/06/25 10:02:09;;;;;;;3.70;2.28;;;;;;;;;;5135969;27;20197;-46
2023/06/25 10:04:37;;;;;;;4.55;2.70;;;;;;;;;;5135966;27;20209;-45
2023/06/25 10:07:05;;;;;;;3.42;2.55;;;;;;;;;;5136276;27;20224;-46
2023/06/25 10:09:32;;;;;;;4.07;2.30;;;;;;;;;;5135744;27;20205;-46
2023/06/25 10:11:59;;;;;;;3.25;2.35;;;;;;;;;;5135717;27;20202;-44
2023/06/25 10:14:36;;;;;;;3.03;2.58;;;;;;;;;;5136277;27;20201;-46
2023/06/25 10:17:04;;;;;;;3.17;2.30;;;;;;;;;;5135637;27;20225;-43
2023/06/25 10:19:32;;;;;;;3.08;2.17;;;;;;;;;;5135832;27;20205;-45
2023/06/25 10:22:04;;;;;;;4.05;2.60;;;;;;;;;;5135787;27;20198;-44
2023/06/25 10:24:39;;;;;;;5.03;2.85;;;;;;;;;;5135514;27;20204;-47
2023/06/25 10:27:06;;;;;;;3.53;2.33;;;;;;;;;;5135597;27;20601;-46
2023/06/25 10:29:41;;;;;;;6.97;2.42;;;;;;;;;;5117093;27;20216;-47
2023/06/25 10:32:08;;;;;;;4.10;2.42;;;;;;;;;;5134822;27;20648;-46
2023/06/25 10:34:36;;;;;;;3.85;2.45;;;;;;;;;;5117341;27;20521;-46
2023/06/25 10:37:05;;;;;;;3.53;2.38;;;;;;;;;;5135315;27;20707;-47
2023/06/25 10:39:39;;;;;;;2.67;2.17;;;;;;;;;;5134281;27;20194;-48
2023/06/25 10:42:07;;;;;;;4.10;2.80;;;;;;;;;;5132745;27;20200;-46
2023/06/25 10:44:35;;;;;;;4.35;2.38;;;;;;;;;;5135119;27;20208;-46
2023/06/25 10:47:07;;;;;;;4.85;2.95;;;;;;;;;;5133979;27;20205;-48
2023/06/25 10:49:35;;;;;;;6.13;2.92;;;;;;;;;;5116209;27;20196;-50
2023/06/25 10:52:03;;;;;;;9.25;2.78;;;;;;;;;;5133215;27;20278;-50
2023/06/25 10:54:32;;;;;;;3.80;2.40;;;;;;;;;;5132707;27;20198;-45
2023/06/25 10:57:09;;;;;;;4.50;2.70;;;;;;;;;;5134281;27;20672;-46
2023/06/25 10:59:38;;;;;;;3.95;2.85;;;;;;;;;;5134433;27;20189;-46
2023/06/25 11:02:21;;;;;;;3.88;2.85;;;;;;;;;;5134158;27;20217;-46
2023/06/25 11:04:51;;;;;;;3.70;2.42;;;;;;;;;;5116416;27;20229;-47
2023/06/25 11:07:19;;;;;;;4.05;2.53;;;;;;;;;;5134319;27;20201;-46
2023/06/25 11:09:54;;;;;;;3.60;2.47;;;;;;;;;;5134504;27;20201;-49
2023/06/25 11:12:21;;;;;;;2.90;2.10;;;;;;;;;;5134604;27;20594;-51
2023/06/25 11:14:49;;;;;;;4.63;2.30;;;;;;;;;;5134706;27;20242;-51
2023/06/25 11:17:17;;;;;;;4.07;2.60;;;;;;;;;;5134372;27;20582;-51
2023/06/25 11:19:54;;;;;;;4.18;2.60;;;;;;;;;;5134608;27;20205;-51
2023/06/25 11:22:21;;;;;;;3.65;2.65;;;;;;;;;;5134826;27;20249;-49
2023/06/25 11:24:49;;;;;;;2.63;2.00;;;;;;;;;;5134191;27;20564;-55
2023/06/25 11:27:25;;;;;;;2.97;2.58;;;;;;;;;;5141381;27;20236;-51
2023/06/25 11:29:56;;;;;;;3.05;2.35;;;;;;;;;;5133946;27;20271;-48
2023/06/25 11:32:26;;;;;;;3.60;2.85;;;;;;;;;;5116636;28;20416;-49
2023/06/25 11:34:59;;;;;;;3.70;2.53;;;;;;;;;;5133069;27;20247;-48
2023/06/25 11:37:29;;;;;;;4.25;2.58;;;;;;;;;;5131280;28;20225;-49
2023/06/25 11:39:56;;;;;;;4.82;2.13;;;;;;;;;;5129892;28;20280;-48
2023/06/25 11:42:24;;;;;;;3.08;2.30;;;;;;;;;;5132376;28;20186;-50
2023/06/25 11:45:00;;;;;;;3.85;2.80;;;;;;;;;;5096873;28;20578;-48
2023/06/25 11:47:27;;;;;;;3.35;2.47;;;;;;;;;;5133588;28;20201;-46
2023/06/25 11:49:55;;;;;;;3.45;2.35;;;;;;;;;;5132517;28;20615;-50
2023/06/25 11:52:23;;;;;;;4.20;2.35;;;;;;;;;;5135030;27;20217;-49
2023/06/25 11:54:50;;;;;;;3.00;2.50;;;;;;;;;;5138246;27;20227;-59
2023/06/25 11:57:18;;;;;;;4.78;2.58;;;;;;;;;;5138222;27;20221;-60
2023/06/25 11:59:46;;;;;;;3.47;2.40;;;;;;;;;;5134039;27;20205;-60
2023/06/25 12:02:13;;;;;;;4.70;2.65;;;;;;;;;;5129304;27;20233;-58
2023/06/25 12:04:40;;;;;;;4.20;2.70;;;;;;;;;;5137918;27;20201;-58
2023/06/25 12:07:08;;;;;;;4.53;2.78;;;;;;;;;;5137895;27;20219;-60
2023/06/25 12:09:35;;;;;;;3.67;2.25;;;;;;;;;;5137377;27;20200;-60
2023/06/25 12:12:02;;;;;;;4.57;2.08;;;;;;;;;;5137136;27;20197;-60
2023/06/25 12:14:30;;;;;;;5.07;2.78;;;;;;;;;;5134810;27;20648;-61
2023/06/25 12:16:57;;;;;;;3.25;2.03;;;;;;;;;;5135981;27;20277;-60
2023/06/25 12:19:24;;;;;;;1.63;1.48;;;;;;;;;;5133884;27;20226;-60
2023/06/25 12:21:51;;;;;;;4.30;1.75;;;;;;;;;;5136798;27;20221;-59
2023/06/25 12:24:18;;;;;;;3.25;1.95;;;;;;;;;;5132959;27;20216;-60
2023/06/25 12:26:46;;;;;;;4.75;2.22;;;;;;;;;;5136649;27;20688;-61
2023/06/25 12:29:13;;;;;;;11.85;2.25;;;;;;;;;;5133745;27;20274;-59
2023/06/25 12:31:40;;;;;;;6.10;2.63;;;;;;;;;;5135767;27;20286;-63
2023/06/25 12:34:07;;;;;;;5.80;3.00;;;;;;;;;;5133243;27;20221;-60
2023/06/25 12:36:35;;;;;;;6.05;3.33;;;;;;;;;;5135168;27;20742;-64
2023/06/25 12:39:03;;;;;;;3.83;2.78;;;;;;;;;;5142090;27;20213;-62
2023/06/25 12:41:30;;;;;;;7.20;3.40;;;;;;;;;;5135479;27;20213;-61
2023/06/25 12:43:57;;;;;;;5.75;3.40;;;;;;;;;;5135626;27;20229;-62
2023/06/25 12:46:24;;;;;;;5.35;3.25;;;;;;;;;;5131493;27;20573;-63
2023/06/25 12:48:51;;;;;;;7.43;3.35;;;;;;;;;;5136169;27;20228;-61
2023/06/25 12:51:18;;;;;;;4.80;3.17;;;;;;;;;;5135498;27;20278;-63
2023/06/25 12:53:46;;;;;;;4.72;3.10;;;;;;;;;;5134830;27;20789;-61
2023/06/25 12:56:13;;;;;;;4.63;3.20;;;;;;;;;;5136525;27;20301;-62
2023/06/25 12:58:40;;;;;;;4.93;3.10;;;;;;;;;;5135768;27;20259;-62
2023/06/25 13:01:07;;;;;;;6.07;3.70;;;;;;;;;;5132589;27;20213;-60
2023/06/25 13:03:34;;;;;;;8.30;2.92;;;;;;;;;;5134391;27;20617;-64
2023/06/25 13:06:02;;;;;;;5.00;2.88;;;;;;;;;;5135644;27;20608;-63
2023/06/25 13:08:29;;;;;;;3.67;2.63;;;;;;;;;;5133747;27;20274;-61
2023/06/25 13:10:57;;;;;;;5.80;2.90;;;;;;;;;;5136206;27;20292;-61
2023/06/25 13:13:24;;;;;;;5.07;2.75;;;;;;;;;;5136698;27;20278;-61
2023/06/25 13:15:51;;;;;;;4.47;2.78;;;;;;;;;;5136054;27;20260;-62
2023/06/25 13:18:19;;;;;;;7.13;2.78;;;;;;;;;;5136220;27;20310;-61
2023/06/25 13:20:46;;;;;;;3.47;2.47;;;;;;;;;;5135982;27;20256;-61
2023/06/25 13:23:13;;;;;;;3.90;2.33;;;;;;;;;;5132531;27;20218;-59
2023/06/25 13:25:41;;;;;;;5.75;2.28;;;;;;;;;;5135544;27;20643;-62
2023/06/25 13:28:08;;;;;;;3.10;2.30;;;;;;;;;;5123691;27;20761;-62
2023/06/25 13:30:35;;;;;;;2.75;2.17;;;;;;;;;;5130020;27;20228;-62
2023/06/25 13:33:04;;;;;;;3.10;1.80;;;;;;;;;;5135711;27;20213;-62
2023/06/25 13:35:32;;;;;;;2.75;2.03;;;;;;;;;;5135155;27;20242;-68
2023/06/25 13:37:59;;;;;;;3.50;2.03;;;;;;;;;;5136112;27;20586;-61
2023/06/25 13:40:26;;;;;;;3.42;2.30;;;;;;;;;;5138148;27;20240;-59
2023/06/25 13:42:53;;;;;;;3.53;2.10;;;;;;;;;;5133049;27;20679;-66
2023/06/25 13:45:21;;;;;;;13.27;2.40;;;;;;;;;;5134849;27;20221;-63
2023/06/25 13:47:49;;;;;;;2.55;1.90;;;;;;;;;;5136171;27;20206;-62
2023/06/25 13:50:17;;;;;;;3.72;2.20;;;;;;;;;;5135713;27;20676;-51
2023/06/25 13:52:44;;;;;;;11.13;2.20;;;;;;;;;;5133616;27;20220;-68
2023/06/25 13:55:11;;;;;;;6.45;2.22;;;;;;;;;;5133356;27;20728;-68
2023/06/25 13:57:39;;;;;;;2.17;1.88;;;;;;;;;;5133735;27;20248;-65
2023/06/25 14:00:07;;;;;;;2.25;1.55;;;;;;;;;;5135339;27;20308;-65
2023/06/25 14:02:34;;;;;;;4.25;2.55;;;;;;;;;;5134363;27;20729;-70
2023/06/25 14:05:07;;;;;;;5.32;2.00;;;;;;;;;;5136765;27;20229;-63
2023/06/25 14:07:35;;;;;;;8.00;1.80;;;;;;;;;;5133238;27;20214;-67
2023/06/25 14:10:02;;;;;;;4.97;1.95;;;;;;;;;;5133301;27;20228;-66
2023/06/25 14:12:29;;;;;;;2.65;1.92;;;;;;;;;;5133521;27;20708;-64
2023/06/25 14:14:56;;;;;;;2.70;1.90;;;;;;;;;;5134064;27;20259;-69
2023/06/25 14:17:24;;;;;;;10.43;2.20;;;;;;;;;;5133661;27;20255;-71
2023/06/25 14:19:51;;;;;;;6.20;2.58;;;;;;;;;;5130432;27;20231;-67
2023/06/25 14:22:18;;;;;;;3.28;2.00;;;;;;;;;;5132410;27;20217;-68
2023/06/25 14:24:46;;;;;;;3.75;2.20;;;;;;;;;;5132745;27;20659;-68
2023/06/25 14:27:16;;;;;;;14.63;2.30;;;;;;;;;;5138624;27;20277;-66
2023/06/25 14:29:44;;;;;;;7.07;2.00;;;;;;;;;;5133501;27;20217;-67
2023/06/25 14:32:11;;;;;;;2.90;1.83;;;;;;;;;;5133349;27;20217;-70
2023/06/25 14:34:38;;;;;;;4.05;1.80;;;;;;;;;;5133129;27;20213;-65
2023/06/25 14:37:06;;;;;;;2.45;1.60;;;;;;;;;;5130736;27;20224;-63
2023/06/25 14:39:33;;;;;;;2.78;1.60;;;;;;;;;;5142125;27;20212;-62
2023/06/25 14:42:00;;;;;;;2.30;1.80;;;;;;;;;;5136759;27;20225;-66
2023/06/25 14:44:27;;;;;;;5.68;2.17;;;;;;;;;;5133407;27;20209;-68
2023/06/25 14:46:54;;;;;;;3.10;1.80;;;;;;;;;;5140058;27;20216;-62